| Date | Time | Temp. (oF) | Dew Point (oF) | Rel. Hum. (%) | Press. (in.) | Wind Dir. (deg.) | Wind Speed (mph) | Hourly Rainfall (i n.) |
|
|---|---|---|---|---|---|---|---|---|---|
| 1 | 11/05 | 24:00 | 36 | 27 | 72 | 30.42 | 310 | 0 | 0.00 |
| 2 | 11/04 | 23:00 | 37 | 28 | 72 | 30.43 | 310 | 0 | 0.00 |
| 3 | 11/04 | 22:00 | 39 | 30 | 70 | 30.42 | 310 | 0 | 0.00 |
| 4 | 11/04 | 21:00 | 40 | 29 | 65 | 30.41 | 310 | 0 | 0.00 |
| 5 | 11/04 | 20:00 | 41 | 29 | 63 | 30.40 | 310 | 0 | 0.00 |
| 6 | 11/04 | 19:00 | 43 | 26 | 53 | 30.40 | 310 | 0 | 0.00 |
| 7 | 11/04 | 18:00 | 44 | 26 | 50 | 30.38 | 310 | 0 | 0.00 |
| 8 | 11/04 | 17:00 | 49 | 27 | 44 | 30.38 | 310 | 0 | 0.00 |
| 9 | 11/04 | 16:00 | 51 | 24 | 35 | 30.37 | 310 | 6 | 0.00 |
| 10 | 11/04 | 15:00 | 52 | 22 | 32 | 30.36 | 300 | 7 | 0.00 |
| 11 | 11/04 | 14:00 | 51 | 23 | 34 | 30.35 | 360 | 9 | 0.00 |
| 12 | 11/04 | 13:00 | 50 | 23 | 36 | 30.34 | 310 | 7 | 0.00 |
| 13 | miss | miss | miss | miss | miss | miss | miss | miss | |
| 14 | 11/04 | 10:53 | 47 | 23 | 40 | 30.35 | 270 | 9 | 0.00 |
| 15 | 11/04 | 10:00 | 44 | 22 | 42 | 30.35 | 270 | 9 | 0.00 |
| 16 | 11/04 | 09:00 | 40 | 21 | 48 | 30.34 | 320 | 6 | 0.00 |
| 17 | 11/04 | 08:00 | 39 | 22 | 52 | 30.32 | 310 | 2 | 0.00 |
| 18 | 11/04 | 07:00 | 37 | 22 | 55 | 30.29 | 230 | 2 | 0.00 |
| 19 | 11/04 | 06:00 | 38 | 22 | 53 | 30.25 | 360 | 6 | 0.00 |
| 20 | 11/04 | 05:00 | 38 | 23 | 56 | 30.22 | 330 | 6 | 0.00 |
| 21 | 11/04 | 04:00 | 38 | 24 | 58 | 30.20 | 310 | 2 | 0.00 |
| 22 | 11/04 | 03:00 | 39 | 25 | 59 | 30.18 | 270 | 2 | 0.00 |
| 23 | 11/04 | 02:00 | 39 | 25 | 58 | 30.17 | 240 | 7 | 0.00 |
| 24 | 11/04 | 01:00 | 39 | 25 | 59 | 30.15 | 310 | 9 | 0.00 |